<?xml version="1.0" encoding="UTF-8" standalone="no" ?>
<gpx xmlns="http://www.topografix.com/GPX/1/1" xmlns:xsi="http://www.w3.org/2001/XMLSchema-instance" xsi:schemaLocation="http://www.topografix.com/GPX/1/1 http://www.topografix.com/GPX/1/1/gpx.xsd" version="1.1" creator="VisuGPX - https://www.visugpx.com">
  <metadata>
    <name>Rando 1/2 journée : Dole Rue Berthollet &lt;-&gt; Mont Roland: 10 km</name>
    <desc><![CDATA[Rando effectuée le 4 novembre 2015]]></desc>
  </metadata>
  <trk>
    <name><![CDATA[4 nov. 2015 09:00:58]]></name>
    <cmt><![CDATA[4 nov. 2015 09:00:58]]></cmt>
    <trkseg>
      <trkpt lat="47.11494" lon="5.49709">
        <ele>207</ele>
        <time>2015-11-04T08:01:04Z</time>
      </trkpt>
      <trkpt lat="47.11427" lon="5.49604">
        <ele>251.9</ele>
        <time>2015-11-04T08:01:51Z</time>
      </trkpt>
      <trkpt lat="47.11422" lon="5.49603">
        <ele>226</ele>
        <time>2015-11-04T08:01:54Z</time>
      </trkpt>
      <trkpt lat="47.11418" lon="5.49596">
        <ele>244</ele>
        <time>2015-11-04T08:01:58Z</time>
      </trkpt>
      <trkpt lat="47.11415" lon="5.49553">
        <ele>256</ele>
        <time>2015-11-04T08:02:20Z</time>
      </trkpt>
      <trkpt lat="47.11413" lon="5.49546">
        <ele>256</ele>
        <time>2015-11-04T08:02:24Z</time>
      </trkpt>
      <trkpt lat="47.11411" lon="5.49539">
        <ele>257</ele>
        <time>2015-11-04T08:02:28Z</time>
      </trkpt>
      <trkpt lat="47.1141" lon="5.49533">
        <ele>257</ele>
        <time>2015-11-04T08:02:31Z</time>
      </trkpt>
      <trkpt lat="47.11408" lon="5.49525">
        <ele>257</ele>
        <time>2015-11-04T08:02:35Z</time>
      </trkpt>
      <trkpt lat="47.11392" lon="5.49496">
        <ele>253</ele>
        <time>2015-11-04T08:02:59Z</time>
      </trkpt>
      <trkpt lat="47.11387" lon="5.49485">
        <ele>253</ele>
        <time>2015-11-04T08:03:08Z</time>
      </trkpt>
      <trkpt lat="47.11384" lon="5.49473">
        <ele>252</ele>
        <time>2015-11-04T08:03:16Z</time>
      </trkpt>
      <trkpt lat="47.11384" lon="5.49428">
        <ele>253</ele>
        <time>2015-11-04T08:03:42Z</time>
      </trkpt>
      <trkpt lat="47.11385" lon="5.49421">
        <ele>253</ele>
        <time>2015-11-04T08:03:46Z</time>
      </trkpt>
      <trkpt lat="47.11383" lon="5.49414">
        <ele>254</ele>
        <time>2015-11-04T08:03:51Z</time>
      </trkpt>
      <trkpt lat="47.11386" lon="5.49409">
        <ele>255</ele>
        <time>2015-11-04T08:03:57Z</time>
      </trkpt>
      <trkpt lat="47.11388" lon="5.49394">
        <ele>256</ele>
        <time>2015-11-04T08:04:04Z</time>
      </trkpt>
      <trkpt lat="47.11388" lon="5.49349">
        <ele>263</ele>
        <time>2015-11-04T08:04:30Z</time>
      </trkpt>
      <trkpt lat="47.11388" lon="5.4934">
        <ele>263</ele>
        <time>2015-11-04T08:04:34Z</time>
      </trkpt>
      <trkpt lat="47.11389" lon="5.49281">
        <ele>270</ele>
        <time>2015-11-04T08:05:05Z</time>
      </trkpt>
      <trkpt lat="47.11388" lon="5.49274">
        <ele>270</ele>
        <time>2015-11-04T08:05:10Z</time>
      </trkpt>
      <trkpt lat="47.11385" lon="5.49269">
        <ele>271</ele>
        <time>2015-11-04T08:05:15Z</time>
      </trkpt>
      <trkpt lat="47.11383" lon="5.49262">
        <ele>271</ele>
        <time>2015-11-04T08:05:20Z</time>
      </trkpt>
      <trkpt lat="47.1138" lon="5.49255">
        <ele>271</ele>
        <time>2015-11-04T08:05:24Z</time>
      </trkpt>
      <trkpt lat="47.11377" lon="5.49249">
        <ele>271</ele>
        <time>2015-11-04T08:05:28Z</time>
      </trkpt>
      <trkpt lat="47.11375" lon="5.49242">
        <ele>271</ele>
        <time>2015-11-04T08:05:32Z</time>
      </trkpt>
      <trkpt lat="47.1137" lon="5.49229">
        <ele>270</ele>
        <time>2015-11-04T08:05:41Z</time>
      </trkpt>
      <trkpt lat="47.11368" lon="5.49215">
        <ele>270</ele>
        <time>2015-11-04T08:05:50Z</time>
      </trkpt>
      <trkpt lat="47.11368" lon="5.49193">
        <ele>272</ele>
        <time>2015-11-04T08:06:02Z</time>
      </trkpt>
      <trkpt lat="47.11369" lon="5.49177">
        <ele>272</ele>
        <time>2015-11-04T08:06:11Z</time>
      </trkpt>
      <trkpt lat="47.11372" lon="5.49171">
        <ele>272</ele>
        <time>2015-11-04T08:06:16Z</time>
      </trkpt>
      <trkpt lat="47.11375" lon="5.49165">
        <ele>272</ele>
        <time>2015-11-04T08:06:20Z</time>
      </trkpt>
      <trkpt lat="47.11378" lon="5.49159">
        <ele>272</ele>
        <time>2015-11-04T08:06:25Z</time>
      </trkpt>
      <trkpt lat="47.11396" lon="5.49132">
        <ele>276</ele>
        <time>2015-11-04T08:06:49Z</time>
      </trkpt>
      <trkpt lat="47.114" lon="5.49128">
        <ele>276</ele>
        <time>2015-11-04T08:06:52Z</time>
      </trkpt>
      <trkpt lat="47.11408" lon="5.49111">
        <ele>278</ele>
        <time>2015-11-04T08:07:05Z</time>
      </trkpt>
      <trkpt lat="47.11407" lon="5.49104">
        <ele>278</ele>
        <time>2015-11-04T08:07:10Z</time>
      </trkpt>
      <trkpt lat="47.11405" lon="5.49098">
        <ele>278</ele>
        <time>2015-11-04T08:07:14Z</time>
      </trkpt>
      <trkpt lat="47.11398" lon="5.49086">
        <ele>278</ele>
        <time>2015-11-04T08:07:22Z</time>
      </trkpt>
      <trkpt lat="47.11391" lon="5.49075">
        <ele>276</ele>
        <time>2015-11-04T08:07:34Z</time>
      </trkpt>
      <trkpt lat="47.11386" lon="5.49063">
        <ele>276</ele>
        <time>2015-11-04T08:07:43Z</time>
      </trkpt>
      <trkpt lat="47.11376" lon="5.49058">
        <ele>273</ele>
        <time>2015-11-04T08:07:56Z</time>
      </trkpt>
      <trkpt lat="47.11373" lon="5.49053">
        <ele>274</ele>
        <time>2015-11-04T08:07:59Z</time>
      </trkpt>
      <trkpt lat="47.11368" lon="5.49052">
        <ele>275</ele>
        <time>2015-11-04T08:08:07Z</time>
      </trkpt>
      <trkpt lat="47.1135" lon="5.49035">
        <ele>276</ele>
        <time>2015-11-04T08:08:25Z</time>
      </trkpt>
      <trkpt lat="47.11323" lon="5.48987">
        <ele>275</ele>
        <time>2015-11-04T08:08:56Z</time>
      </trkpt>
      <trkpt lat="47.1132" lon="5.4898">
        <ele>275</ele>
        <time>2015-11-04T08:09:02Z</time>
      </trkpt>
      <trkpt lat="47.11322" lon="5.48974">
        <ele>276</ele>
        <time>2015-11-04T08:09:13Z</time>
      </trkpt>
      <trkpt lat="47.11326" lon="5.4897">
        <ele>276</ele>
        <time>2015-11-04T08:09:19Z</time>
      </trkpt>
      <trkpt lat="47.1133" lon="5.48966">
        <ele>276</ele>
        <time>2015-11-04T08:09:25Z</time>
      </trkpt>
      <trkpt lat="47.11332" lon="5.48959">
        <ele>276</ele>
        <time>2015-11-04T08:09:31Z</time>
      </trkpt>
      <trkpt lat="47.11337" lon="5.48947">
        <ele>276</ele>
        <time>2015-11-04T08:09:40Z</time>
      </trkpt>
      <trkpt lat="47.11346" lon="5.48939">
        <ele>276</ele>
        <time>2015-11-04T08:09:52Z</time>
      </trkpt>
      <trkpt lat="47.1135" lon="5.48937">
        <ele>276</ele>
        <time>2015-11-04T08:09:58Z</time>
      </trkpt>
      <trkpt lat="47.11354" lon="5.48932">
        <ele>277</ele>
        <time>2015-11-04T08:10:04Z</time>
      </trkpt>
      <trkpt lat="47.11357" lon="5.4892">
        <ele>279</ele>
        <time>2015-11-04T08:10:13Z</time>
      </trkpt>
      <trkpt lat="47.11362" lon="5.48907">
        <ele>279</ele>
        <time>2015-11-04T08:10:23Z</time>
      </trkpt>
      <trkpt lat="47.11367" lon="5.48881">
        <ele>283</ele>
        <time>2015-11-04T08:10:45Z</time>
      </trkpt>
      <trkpt lat="47.11374" lon="5.48872">
        <ele>284</ele>
        <time>2015-11-04T08:10:55Z</time>
      </trkpt>
      <trkpt lat="47.11393" lon="5.48866">
        <ele>285</ele>
        <time>2015-11-04T08:11:18Z</time>
      </trkpt>
      <trkpt lat="47.11402" lon="5.48868">
        <ele>285</ele>
        <time>2015-11-04T08:11:31Z</time>
      </trkpt>
      <trkpt lat="47.1141" lon="5.48862">
        <ele>284</ele>
        <time>2015-11-04T08:11:41Z</time>
      </trkpt>
      <trkpt lat="47.11418" lon="5.48856">
        <ele>285</ele>
        <time>2015-11-04T08:11:52Z</time>
      </trkpt>
      <trkpt lat="47.11455" lon="5.4884">
        <ele>291</ele>
        <time>2015-11-04T08:12:32Z</time>
      </trkpt>
      <trkpt lat="47.11476" lon="5.48814">
        <ele>299</ele>
        <time>2015-11-04T08:13:09Z</time>
      </trkpt>
      <trkpt lat="47.11484" lon="5.48788">
        <ele>303</ele>
        <time>2015-11-04T08:13:41Z</time>
      </trkpt>
      <trkpt lat="47.11494" lon="5.4875">
        <ele>306</ele>
        <time>2015-11-04T08:14:24Z</time>
      </trkpt>
      <trkpt lat="47.11485" lon="5.48746">
        <ele>307</ele>
        <time>2015-11-04T08:14:40Z</time>
      </trkpt>
      <trkpt lat="47.1148" lon="5.48748">
        <ele>311</ele>
        <time>2015-11-04T08:15:51Z</time>
      </trkpt>
      <trkpt lat="47.11472" lon="5.48741">
        <ele>311</ele>
        <time>2015-11-04T08:16:01Z</time>
      </trkpt>
      <trkpt lat="47.11454" lon="5.4873">
        <ele>305</ele>
        <time>2015-11-04T08:16:21Z</time>
      </trkpt>
      <trkpt lat="47.11445" lon="5.48723">
        <ele>304</ele>
        <time>2015-11-04T08:16:33Z</time>
      </trkpt>
      <trkpt lat="47.11431" lon="5.48707">
        <ele>305</ele>
        <time>2015-11-04T08:16:53Z</time>
      </trkpt>
      <trkpt lat="47.11422" lon="5.487">
        <ele>305</ele>
        <time>2015-11-04T08:17:02Z</time>
      </trkpt>
      <trkpt lat="47.11415" lon="5.48692">
        <ele>303</ele>
        <time>2015-11-04T08:17:12Z</time>
      </trkpt>
      <trkpt lat="47.11408" lon="5.48683">
        <ele>304</ele>
        <time>2015-11-04T08:17:21Z</time>
      </trkpt>
      <trkpt lat="47.1138" lon="5.48644">
        <ele>306</ele>
        <time>2015-11-04T08:17:53Z</time>
      </trkpt>
      <trkpt lat="47.11372" lon="5.48638">
        <ele>307</ele>
        <time>2015-11-04T08:18:02Z</time>
      </trkpt>
      <trkpt lat="47.11364" lon="5.48629">
        <ele>306</ele>
        <time>2015-11-04T08:18:11Z</time>
      </trkpt>
      <trkpt lat="47.11341" lon="5.48604">
        <ele>303</ele>
        <time>2015-11-04T08:18:36Z</time>
      </trkpt>
      <trkpt lat="47.11311" lon="5.4857">
        <ele>303</ele>
        <time>2015-11-04T08:19:07Z</time>
      </trkpt>
      <trkpt lat="47.11285" lon="5.48551">
        <ele>301</ele>
        <time>2015-11-04T08:19:35Z</time>
      </trkpt>
      <trkpt lat="47.11276" lon="5.48543">
        <ele>299</ele>
        <time>2015-11-04T08:19:43Z</time>
      </trkpt>
      <trkpt lat="47.11243" lon="5.48513">
        <ele>297</ele>
        <time>2015-11-04T08:20:12Z</time>
      </trkpt>
      <trkpt lat="47.11218" lon="5.48471">
        <ele>298</ele>
        <time>2015-11-04T08:20:41Z</time>
      </trkpt>
      <trkpt lat="47.11212" lon="5.48465">
        <ele>298</ele>
        <time>2015-11-04T08:20:47Z</time>
      </trkpt>
      <trkpt lat="47.11208" lon="5.48461">
        <ele>297</ele>
        <time>2015-11-04T08:20:51Z</time>
      </trkpt>
      <trkpt lat="47.11196" lon="5.48439">
        <ele>297</ele>
        <time>2015-11-04T08:21:09Z</time>
      </trkpt>
      <trkpt lat="47.11191" lon="5.48434">
        <ele>297</ele>
        <time>2015-11-04T08:21:13Z</time>
      </trkpt>
      <trkpt lat="47.11188" lon="5.48429">
        <ele>297</ele>
        <time>2015-11-04T08:21:17Z</time>
      </trkpt>
      <trkpt lat="47.11184" lon="5.48423">
        <ele>296</ele>
        <time>2015-11-04T08:21:21Z</time>
      </trkpt>
      <trkpt lat="47.1118" lon="5.48419">
        <ele>296</ele>
        <time>2015-11-04T08:21:27Z</time>
      </trkpt>
      <trkpt lat="47.11171" lon="5.48401">
        <ele>297</ele>
        <time>2015-11-04T08:21:38Z</time>
      </trkpt>
      <trkpt lat="47.11167" lon="5.48395">
        <ele>297</ele>
        <time>2015-11-04T08:21:42Z</time>
      </trkpt>
      <trkpt lat="47.11164" lon="5.4839">
        <ele>298</ele>
        <time>2015-11-04T08:21:46Z</time>
      </trkpt>
      <trkpt lat="47.11153" lon="5.48378">
        <ele>298</ele>
        <time>2015-11-04T08:21:58Z</time>
      </trkpt>
      <trkpt lat="47.1114" lon="5.48357">
        <ele>298</ele>
        <time>2015-11-04T08:22:14Z</time>
      </trkpt>
      <trkpt lat="47.11133" lon="5.48347">
        <ele>297</ele>
        <time>2015-11-04T08:22:24Z</time>
      </trkpt>
      <trkpt lat="47.11129" lon="5.48342">
        <ele>297</ele>
        <time>2015-11-04T08:22:28Z</time>
      </trkpt>
      <trkpt lat="47.11121" lon="5.48331">
        <ele>296</ele>
        <time>2015-11-04T08:22:39Z</time>
      </trkpt>
      <trkpt lat="47.11103" lon="5.48321">
        <ele>295</ele>
        <time>2015-11-04T08:22:55Z</time>
      </trkpt>
      <trkpt lat="47.11093" lon="5.48321">
        <ele>295</ele>
        <time>2015-11-04T08:23:03Z</time>
      </trkpt>
      <trkpt lat="47.11067" lon="5.48341">
        <ele>290</ele>
        <time>2015-11-04T08:23:27Z</time>
      </trkpt>
      <trkpt lat="47.11062" lon="5.48342">
        <ele>290</ele>
        <time>2015-11-04T08:23:31Z</time>
      </trkpt>
      <trkpt lat="47.11052" lon="5.48337">
        <ele>289</ele>
        <time>2015-11-04T08:23:39Z</time>
      </trkpt>
      <trkpt lat="47.11047" lon="5.48334">
        <ele>288</ele>
        <time>2015-11-04T08:23:44Z</time>
      </trkpt>
      <trkpt lat="47.11043" lon="5.48331">
        <ele>288</ele>
        <time>2015-11-04T08:23:48Z</time>
      </trkpt>
      <trkpt lat="47.11013" lon="5.48304">
        <ele>285</ele>
        <time>2015-11-04T08:24:20Z</time>
      </trkpt>
      <trkpt lat="47.11009" lon="5.48301">
        <ele>285</ele>
        <time>2015-11-04T08:24:24Z</time>
      </trkpt>
      <trkpt lat="47.10984" lon="5.48279">
        <ele>282</ele>
        <time>2015-11-04T08:24:52Z</time>
      </trkpt>
      <trkpt lat="47.10985" lon="5.48265">
        <ele>281</ele>
        <time>2015-11-04T08:24:59Z</time>
      </trkpt>
      <trkpt lat="47.10989" lon="5.48253">
        <ele>280</ele>
        <time>2015-11-04T08:25:06Z</time>
      </trkpt>
      <trkpt lat="47.10989" lon="5.48239">
        <ele>279</ele>
        <time>2015-11-04T08:25:14Z</time>
      </trkpt>
      <trkpt lat="47.10995" lon="5.48227">
        <ele>279</ele>
        <time>2015-11-04T08:25:21Z</time>
      </trkpt>
      <trkpt lat="47.1101" lon="5.48178">
        <ele>282</ele>
        <time>2015-11-04T08:25:49Z</time>
      </trkpt>
      <trkpt lat="47.11012" lon="5.48136">
        <ele>282</ele>
        <time>2015-11-04T08:26:14Z</time>
      </trkpt>
      <trkpt lat="47.11018" lon="5.48111">
        <ele>281</ele>
        <time>2015-11-04T08:26:30Z</time>
      </trkpt>
      <trkpt lat="47.11035" lon="5.48098">
        <ele>280</ele>
        <time>2015-11-04T08:26:46Z</time>
      </trkpt>
      <trkpt lat="47.11072" lon="5.48079">
        <ele>283</ele>
        <time>2015-11-04T08:27:17Z</time>
      </trkpt>
      <trkpt lat="47.11089" lon="5.48067">
        <ele>283</ele>
        <time>2015-11-04T08:27:36Z</time>
      </trkpt>
      <trkpt lat="47.11094" lon="5.48055">
        <ele>284</ele>
        <time>2015-11-04T08:27:45Z</time>
      </trkpt>
      <trkpt lat="47.11096" lon="5.4804">
        <ele>283</ele>
        <time>2015-11-04T08:27:53Z</time>
      </trkpt>
      <trkpt lat="47.11094" lon="5.48017">
        <ele>284</ele>
        <time>2015-11-04T08:28:07Z</time>
      </trkpt>
      <trkpt lat="47.11094" lon="5.48002">
        <ele>283</ele>
        <time>2015-11-04T08:28:16Z</time>
      </trkpt>
      <trkpt lat="47.11106" lon="5.47967">
        <ele>280</ele>
        <time>2015-11-04T08:28:39Z</time>
      </trkpt>
      <trkpt lat="47.11112" lon="5.47955">
        <ele>280</ele>
        <time>2015-11-04T08:28:47Z</time>
      </trkpt>
      <trkpt lat="47.11127" lon="5.47921">
        <ele>279</ele>
        <time>2015-11-04T08:29:10Z</time>
      </trkpt>
      <trkpt lat="47.11136" lon="5.47867">
        <ele>275</ele>
        <time>2015-11-04T08:29:44Z</time>
      </trkpt>
      <trkpt lat="47.11132" lon="5.47826">
        <ele>273</ele>
        <time>2015-11-04T08:30:09Z</time>
      </trkpt>
      <trkpt lat="47.1113" lon="5.47801">
        <ele>271</ele>
        <time>2015-11-04T08:30:24Z</time>
      </trkpt>
      <trkpt lat="47.1113" lon="5.47784">
        <ele>270</ele>
        <time>2015-11-04T08:30:34Z</time>
      </trkpt>
      <trkpt lat="47.11118" lon="5.47747">
        <ele>268</ele>
        <time>2015-11-04T08:31:05Z</time>
      </trkpt>
      <trkpt lat="47.11089" lon="5.47739">
        <ele>264</ele>
        <time>2015-11-04T08:31:26Z</time>
      </trkpt>
      <trkpt lat="47.1107" lon="5.47739">
        <ele>262</ele>
        <time>2015-11-04T08:31:42Z</time>
      </trkpt>
      <trkpt lat="47.11033" lon="5.47729">
        <ele>260</ele>
        <time>2015-11-04T08:32:12Z</time>
      </trkpt>
      <trkpt lat="47.10995" lon="5.4772">
        <ele>258</ele>
        <time>2015-11-04T08:32:45Z</time>
      </trkpt>
      <trkpt lat="47.10986" lon="5.47716">
        <ele>258</ele>
        <time>2015-11-04T08:32:52Z</time>
      </trkpt>
      <trkpt lat="47.10949" lon="5.477">
        <ele>258</ele>
        <time>2015-11-04T08:33:21Z</time>
      </trkpt>
      <trkpt lat="47.10913" lon="5.47696">
        <ele>254</ele>
        <time>2015-11-04T08:33:57Z</time>
      </trkpt>
      <trkpt lat="47.10912" lon="5.47682">
        <ele>252</ele>
        <time>2015-11-04T08:34:08Z</time>
      </trkpt>
      <trkpt lat="47.10919" lon="5.47672">
        <ele>252</ele>
        <time>2015-11-04T08:34:17Z</time>
      </trkpt>
      <trkpt lat="47.10925" lon="5.47661">
        <ele>252</ele>
        <time>2015-11-04T08:34:25Z</time>
      </trkpt>
      <trkpt lat="47.10929" lon="5.47649">
        <ele>252</ele>
        <time>2015-11-04T08:34:33Z</time>
      </trkpt>
      <trkpt lat="47.10949" lon="5.476">
        <ele>258</ele>
        <time>2015-11-04T08:35:07Z</time>
      </trkpt>
      <trkpt lat="47.10952" lon="5.47594">
        <ele>259</ele>
        <time>2015-11-04T08:35:11Z</time>
      </trkpt>
      <trkpt lat="47.10959" lon="5.47582">
        <ele>259</ele>
        <time>2015-11-04T08:35:19Z</time>
      </trkpt>
      <trkpt lat="47.10972" lon="5.47559">
        <ele>260</ele>
        <time>2015-11-04T08:35:35Z</time>
      </trkpt>
      <trkpt lat="47.1098" lon="5.47541">
        <ele>257</ele>
        <time>2015-11-04T08:35:51Z</time>
      </trkpt>
      <trkpt lat="47.10983" lon="5.47535">
        <ele>258</ele>
        <time>2015-11-04T08:35:56Z</time>
      </trkpt>
      <trkpt lat="47.11005" lon="5.47503">
        <ele>262</ele>
        <time>2015-11-04T08:36:23Z</time>
      </trkpt>
      <trkpt lat="47.11008" lon="5.47497">
        <ele>262</ele>
        <time>2015-11-04T08:36:27Z</time>
      </trkpt>
      <trkpt lat="47.11011" lon="5.4749">
        <ele>261</ele>
        <time>2015-11-04T08:36:32Z</time>
      </trkpt>
      <trkpt lat="47.11021" lon="5.47473">
        <ele>261</ele>
        <time>2015-11-04T08:36:45Z</time>
      </trkpt>
      <trkpt lat="47.11033" lon="5.47447">
        <ele>262</ele>
        <time>2015-11-04T08:37:04Z</time>
      </trkpt>
      <trkpt lat="47.11035" lon="5.47441">
        <ele>262</ele>
        <time>2015-11-04T08:37:08Z</time>
      </trkpt>
      <trkpt lat="47.1104" lon="5.47429">
        <ele>262</ele>
        <time>2015-11-04T08:37:16Z</time>
      </trkpt>
      <trkpt lat="47.11043" lon="5.47423">
        <ele>262</ele>
        <time>2015-11-04T08:37:20Z</time>
      </trkpt>
      <trkpt lat="47.11046" lon="5.47417">
        <ele>262</ele>
        <time>2015-11-04T08:37:24Z</time>
      </trkpt>
      <trkpt lat="47.1106" lon="5.47361">
        <ele>268</ele>
        <time>2015-11-04T08:37:57Z</time>
      </trkpt>
      <trkpt lat="47.11063" lon="5.47354">
        <ele>269</ele>
        <time>2015-11-04T08:38:02Z</time>
      </trkpt>
      <trkpt lat="47.1107" lon="5.47341">
        <ele>270</ele>
        <time>2015-11-04T08:38:10Z</time>
      </trkpt>
      <trkpt lat="47.11079" lon="5.47297">
        <ele>272</ele>
        <time>2015-11-04T08:38:38Z</time>
      </trkpt>
      <trkpt lat="47.11081" lon="5.47291">
        <ele>272</ele>
        <time>2015-11-04T08:38:42Z</time>
      </trkpt>
      <trkpt lat="47.11083" lon="5.47262">
        <ele>270</ele>
        <time>2015-11-04T08:39:01Z</time>
      </trkpt>
      <trkpt lat="47.11093" lon="5.47239">
        <ele>268</ele>
        <time>2015-11-04T08:39:19Z</time>
      </trkpt>
      <trkpt lat="47.11099" lon="5.47229">
        <ele>268</ele>
        <time>2015-11-04T08:39:27Z</time>
      </trkpt>
      <trkpt lat="47.11101" lon="5.47214">
        <ele>269</ele>
        <time>2015-11-04T08:39:38Z</time>
      </trkpt>
      <trkpt lat="47.11109" lon="5.47205">
        <ele>269</ele>
        <time>2015-11-04T08:39:51Z</time>
      </trkpt>
      <trkpt lat="47.11126" lon="5.47197">
        <ele>268</ele>
        <time>2015-11-04T08:40:16Z</time>
      </trkpt>
      <trkpt lat="47.11164" lon="5.47201">
        <ele>270</ele>
        <time>2015-11-04T08:40:54Z</time>
      </trkpt>
      <trkpt lat="47.11182" lon="5.47196">
        <ele>272</ele>
        <time>2015-11-04T08:41:11Z</time>
      </trkpt>
      <trkpt lat="47.11201" lon="5.47202">
        <ele>273</ele>
        <time>2015-11-04T08:41:29Z</time>
      </trkpt>
      <trkpt lat="47.11218" lon="5.47215">
        <ele>276</ele>
        <time>2015-11-04T08:41:50Z</time>
      </trkpt>
      <trkpt lat="47.11237" lon="5.47209">
        <ele>278</ele>
        <time>2015-11-04T08:42:05Z</time>
      </trkpt>
      <trkpt lat="47.11273" lon="5.47226">
        <ele>281</ele>
        <time>2015-11-04T08:42:36Z</time>
      </trkpt>
      <trkpt lat="47.11303" lon="5.47278">
        <ele>287</ele>
        <time>2015-11-04T08:43:13Z</time>
      </trkpt>
      <trkpt lat="47.11326" lon="5.47292">
        <ele>287</ele>
        <time>2015-11-04T08:43:47Z</time>
      </trkpt>
      <trkpt lat="47.11331" lon="5.47304">
        <ele>286</ele>
        <time>2015-11-04T08:44:07Z</time>
      </trkpt>
      <trkpt lat="47.11338" lon="5.47315">
        <ele>286</ele>
        <time>2015-11-04T08:44:14Z</time>
      </trkpt>
      <trkpt lat="47.11353" lon="5.47332">
        <ele>288</ele>
        <time>2015-11-04T08:44:30Z</time>
      </trkpt>
      <trkpt lat="47.1136" lon="5.47342">
        <ele>289</ele>
        <time>2015-11-04T08:44:38Z</time>
      </trkpt>
      <trkpt lat="47.11369" lon="5.47346">
        <ele>289</ele>
        <time>2015-11-04T08:44:47Z</time>
      </trkpt>
      <trkpt lat="47.11392" lon="5.4737">
        <ele>288</ele>
        <time>2015-11-04T08:45:13Z</time>
      </trkpt>
      <trkpt lat="47.1142" lon="5.47381">
        <ele>288</ele>
        <time>2015-11-04T08:45:39Z</time>
      </trkpt>
      <trkpt lat="47.11429" lon="5.47385">
        <ele>289</ele>
        <time>2015-11-04T08:45:48Z</time>
      </trkpt>
      <trkpt lat="47.11438" lon="5.4739">
        <ele>289</ele>
        <time>2015-11-04T08:45:58Z</time>
      </trkpt>
      <trkpt lat="47.11448" lon="5.47391">
        <ele>290</ele>
        <time>2015-11-04T08:46:07Z</time>
      </trkpt>
      <trkpt lat="47.11458" lon="5.4739">
        <ele>291</ele>
        <time>2015-11-04T08:46:15Z</time>
      </trkpt>
      <trkpt lat="47.11496" lon="5.47402">
        <ele>291</ele>
        <time>2015-11-04T08:46:53Z</time>
      </trkpt>
      <trkpt lat="47.11506" lon="5.47403">
        <ele>292</ele>
        <time>2015-11-04T08:47:03Z</time>
      </trkpt>
      <trkpt lat="47.11541" lon="5.47426">
        <ele>291</ele>
        <time>2015-11-04T08:47:42Z</time>
      </trkpt>
      <trkpt lat="47.11576" lon="5.47442">
        <ele>290</ele>
        <time>2015-11-04T08:48:17Z</time>
      </trkpt>
      <trkpt lat="47.11613" lon="5.4745">
        <ele>290</ele>
        <time>2015-11-04T08:48:53Z</time>
      </trkpt>
      <trkpt lat="47.1165" lon="5.47467">
        <ele>288</ele>
        <time>2015-11-04T08:49:31Z</time>
      </trkpt>
      <trkpt lat="47.1166" lon="5.47465">
        <ele>288</ele>
        <time>2015-11-04T08:49:38Z</time>
      </trkpt>
      <trkpt lat="47.11688" lon="5.47457">
        <ele>288</ele>
        <time>2015-11-04T08:49:59Z</time>
      </trkpt>
      <trkpt lat="47.11697" lon="5.47452">
        <ele>288</ele>
        <time>2015-11-04T08:50:07Z</time>
      </trkpt>
      <trkpt lat="47.11703" lon="5.47442">
        <ele>287</ele>
        <time>2015-11-04T08:50:17Z</time>
      </trkpt>
      <trkpt lat="47.1171" lon="5.47435">
        <ele>287</ele>
        <time>2015-11-04T08:50:32Z</time>
      </trkpt>
      <trkpt lat="47.11714" lon="5.47423">
        <ele>287</ele>
        <time>2015-11-04T08:50:43Z</time>
      </trkpt>
      <trkpt lat="47.11736" lon="5.47399">
        <ele>290</ele>
        <time>2015-11-04T08:51:11Z</time>
      </trkpt>
      <trkpt lat="47.11765" lon="5.47389">
        <ele>295</ele>
        <time>2015-11-04T08:51:42Z</time>
      </trkpt>
      <trkpt lat="47.11801" lon="5.47376">
        <ele>299</ele>
        <time>2015-11-04T08:52:18Z</time>
      </trkpt>
      <trkpt lat="47.11842" lon="5.47378">
        <ele>305</ele>
        <time>2015-11-04T08:52:53Z</time>
      </trkpt>
      <trkpt lat="47.11851" lon="5.47375">
        <ele>309</ele>
        <time>2015-11-04T08:53:02Z</time>
      </trkpt>
      <trkpt lat="47.1186" lon="5.47374">
        <ele>310</ele>
        <time>2015-11-04T08:53:09Z</time>
      </trkpt>
      <trkpt lat="47.11897" lon="5.47372">
        <ele>309</ele>
        <time>2015-11-04T08:53:49Z</time>
      </trkpt>
      <trkpt lat="47.11915" lon="5.4738">
        <ele>310</ele>
        <time>2015-11-04T08:54:06Z</time>
      </trkpt>
      <trkpt lat="47.11924" lon="5.47377">
        <ele>310</ele>
        <time>2015-11-04T08:54:13Z</time>
      </trkpt>
      <trkpt lat="47.11934" lon="5.47375">
        <ele>310</ele>
        <time>2015-11-04T08:54:20Z</time>
      </trkpt>
      <trkpt lat="47.11943" lon="5.47374">
        <ele>312</ele>
        <time>2015-11-04T08:54:27Z</time>
      </trkpt>
      <trkpt lat="47.11963" lon="5.47374">
        <ele>312</ele>
        <time>2015-11-04T08:54:43Z</time>
      </trkpt>
      <trkpt lat="47.11973" lon="5.47375">
        <ele>313</ele>
        <time>2015-11-04T08:54:56Z</time>
      </trkpt>
      <trkpt lat="47.11982" lon="5.47379">
        <ele>315</ele>
        <time>2015-11-04T08:55:05Z</time>
      </trkpt>
      <trkpt lat="47.12001" lon="5.47373">
        <ele>316</ele>
        <time>2015-11-04T08:55:19Z</time>
      </trkpt>
      <trkpt lat="47.12009" lon="5.47369">
        <ele>316</ele>
        <time>2015-11-04T08:55:30Z</time>
      </trkpt>
      <trkpt lat="47.12029" lon="5.47374">
        <ele>318</ele>
        <time>2015-11-04T08:55:49Z</time>
      </trkpt>
      <trkpt lat="47.12047" lon="5.47381">
        <ele>320</ele>
        <time>2015-11-04T08:56:07Z</time>
      </trkpt>
      <trkpt lat="47.12056" lon="5.47383">
        <ele>321</ele>
        <time>2015-11-04T08:56:18Z</time>
      </trkpt>
      <trkpt lat="47.12072" lon="5.4738">
        <ele>324</ele>
        <time>2015-11-04T08:56:43Z</time>
      </trkpt>
      <trkpt lat="47.1209" lon="5.47386">
        <ele>324</ele>
        <time>2015-11-04T08:57:15Z</time>
      </trkpt>
      <trkpt lat="47.121" lon="5.47388">
        <ele>324</ele>
        <time>2015-11-04T08:57:23Z</time>
      </trkpt>
      <trkpt lat="47.12119" lon="5.47388">
        <ele>324</ele>
        <time>2015-11-04T08:57:43Z</time>
      </trkpt>
      <trkpt lat="47.12129" lon="5.47394">
        <ele>325</ele>
        <time>2015-11-04T08:57:54Z</time>
      </trkpt>
      <trkpt lat="47.12159" lon="5.47393">
        <ele>325</ele>
        <time>2015-11-04T08:58:30Z</time>
      </trkpt>
      <trkpt lat="47.12186" lon="5.47404">
        <ele>328</ele>
        <time>2015-11-04T08:59:02Z</time>
      </trkpt>
      <trkpt lat="47.12223" lon="5.47415">
        <ele>333</ele>
        <time>2015-11-04T08:59:39Z</time>
      </trkpt>
      <trkpt lat="47.12238" lon="5.4742">
        <ele>334</ele>
        <time>2015-11-04T08:59:52Z</time>
      </trkpt>
      <trkpt lat="47.12243" lon="5.47422">
        <ele>334</ele>
        <time>2015-11-04T08:59:57Z</time>
      </trkpt>
      <trkpt lat="47.12249" lon="5.47419">
        <ele>334</ele>
        <time>2015-11-04T09:00:08Z</time>
      </trkpt>
      <trkpt lat="47.12254" lon="5.47421">
        <ele>334</ele>
        <time>2015-11-04T09:00:12Z</time>
      </trkpt>
      <trkpt lat="47.12258" lon="5.47422">
        <ele>334</ele>
        <time>2015-11-04T09:00:16Z</time>
      </trkpt>
      <trkpt lat="47.12268" lon="5.47429">
        <ele>335</ele>
        <time>2015-11-04T09:00:26Z</time>
      </trkpt>
      <trkpt lat="47.12273" lon="5.47431">
        <ele>335</ele>
        <time>2015-11-04T09:00:31Z</time>
      </trkpt>
      <trkpt lat="47.12277" lon="5.47433">
        <ele>336</ele>
        <time>2015-11-04T09:00:35Z</time>
      </trkpt>
      <trkpt lat="47.12282" lon="5.47437">
        <ele>336</ele>
        <time>2015-11-04T09:00:40Z</time>
      </trkpt>
      <trkpt lat="47.12296" lon="5.47441">
        <ele>338</ele>
        <time>2015-11-04T09:00:54Z</time>
      </trkpt>
      <trkpt lat="47.12306" lon="5.47442">
        <ele>338</ele>
        <time>2015-11-04T09:01:04Z</time>
      </trkpt>
      <trkpt lat="47.12339" lon="5.47457">
        <ele>341</ele>
        <time>2015-11-04T09:01:34Z</time>
      </trkpt>
      <trkpt lat="47.12358" lon="5.47462">
        <ele>342</ele>
        <time>2015-11-04T09:01:54Z</time>
      </trkpt>
      <trkpt lat="47.12369" lon="5.47464">
        <ele>343</ele>
        <time>2015-11-04T09:02:04Z</time>
      </trkpt>
      <trkpt lat="47.12379" lon="5.47468">
        <ele>344</ele>
        <time>2015-11-04T09:02:14Z</time>
      </trkpt>
      <trkpt lat="47.12383" lon="5.4747">
        <ele>344</ele>
        <time>2015-11-04T09:02:18Z</time>
      </trkpt>
      <trkpt lat="47.12394" lon="5.47474">
        <ele>344</ele>
        <time>2015-11-04T09:02:28Z</time>
      </trkpt>
      <trkpt lat="47.12408" lon="5.47478">
        <ele>343</ele>
        <time>2015-11-04T09:02:44Z</time>
      </trkpt>
      <trkpt lat="47.12414" lon="5.47479">
        <ele>344</ele>
        <time>2015-11-04T09:02:48Z</time>
      </trkpt>
      <trkpt lat="47.12424" lon="5.4748">
        <ele>343</ele>
        <time>2015-11-04T09:03:02Z</time>
      </trkpt>
      <trkpt lat="47.12425" lon="5.47484">
        <ele>345</ele>
        <time>2015-11-04T09:04:04Z</time>
      </trkpt>
      <trkpt lat="47.12429" lon="5.47488">
        <ele>345</ele>
        <time>2015-11-04T09:04:19Z</time>
      </trkpt>
      <trkpt lat="47.12437" lon="5.47496">
        <ele>344</ele>
        <time>2015-11-04T09:04:28Z</time>
      </trkpt>
      <trkpt lat="47.12439" lon="5.47509">
        <ele>343</ele>
        <time>2015-11-04T09:04:42Z</time>
      </trkpt>
      <trkpt lat="47.1243" lon="5.47508">
        <ele>343</ele>
        <time>2015-11-04T09:04:52Z</time>
      </trkpt>
      <trkpt lat="47.12436" lon="5.47503">
        <ele>343</ele>
        <time>2015-11-04T09:05:45Z</time>
      </trkpt>
      <trkpt lat="47.12431" lon="5.4749">
        <ele>343</ele>
        <time>2015-11-04T09:05:54Z</time>
      </trkpt>
      <trkpt lat="47.12435" lon="5.47479">
        <ele>344</ele>
        <time>2015-11-04T09:07:30Z</time>
      </trkpt>
      <trkpt lat="47.12441" lon="5.47479">
        <ele>343</ele>
        <time>2015-11-04T09:08:43Z</time>
      </trkpt>
      <trkpt lat="47.12454" lon="5.47483">
        <ele>341</ele>
        <time>2015-11-04T09:09:24Z</time>
      </trkpt>
      <trkpt lat="47.12481" lon="5.47501">
        <ele>345</ele>
        <time>2015-11-04T09:09:47Z</time>
      </trkpt>
      <trkpt lat="47.12491" lon="5.47504">
        <ele>345</ele>
        <time>2015-11-04T09:09:54Z</time>
      </trkpt>
      <trkpt lat="47.12499" lon="5.47508">
        <ele>345</ele>
        <time>2015-11-04T09:10:02Z</time>
      </trkpt>
      <trkpt lat="47.12525" lon="5.47521">
        <ele>344</ele>
        <time>2015-11-04T09:10:25Z</time>
      </trkpt>
      <trkpt lat="47.12532" lon="5.4753">
        <ele>343</ele>
        <time>2015-11-04T09:10:34Z</time>
      </trkpt>
      <trkpt lat="47.1254" lon="5.47538">
        <ele>343</ele>
        <time>2015-11-04T09:10:42Z</time>
      </trkpt>
      <trkpt lat="47.12545" lon="5.47549">
        <ele>343</ele>
        <time>2015-11-04T09:10:50Z</time>
      </trkpt>
      <trkpt lat="47.12543" lon="5.47562">
        <ele>343</ele>
        <time>2015-11-04T09:11:00Z</time>
      </trkpt>
      <trkpt lat="47.12533" lon="5.47585">
        <ele>341</ele>
        <time>2015-11-04T09:11:16Z</time>
      </trkpt>
      <trkpt lat="47.12536" lon="5.47599">
        <ele>340</ele>
        <time>2015-11-04T09:11:24Z</time>
      </trkpt>
      <trkpt lat="47.12541" lon="5.47611">
        <ele>340</ele>
        <time>2015-11-04T09:11:31Z</time>
      </trkpt>
      <trkpt lat="47.12575" lon="5.47633">
        <ele>339</ele>
        <time>2015-11-04T09:12:02Z</time>
      </trkpt>
      <trkpt lat="47.12584" lon="5.47638">
        <ele>339</ele>
        <time>2015-11-04T09:12:12Z</time>
      </trkpt>
      <trkpt lat="47.12609" lon="5.47657">
        <ele>338</ele>
        <time>2015-11-04T09:12:36Z</time>
      </trkpt>
      <trkpt lat="47.12626" lon="5.47671">
        <ele>339</ele>
        <time>2015-11-04T09:12:52Z</time>
      </trkpt>
      <trkpt lat="47.12635" lon="5.47675">
        <ele>341</ele>
        <time>2015-11-04T09:13:01Z</time>
      </trkpt>
      <trkpt lat="47.12652" lon="5.47686">
        <ele>339</ele>
        <time>2015-11-04T09:13:16Z</time>
      </trkpt>
      <trkpt lat="47.1266" lon="5.47695">
        <ele>340</ele>
        <time>2015-11-04T09:13:25Z</time>
      </trkpt>
      <trkpt lat="47.12669" lon="5.47699">
        <ele>340</ele>
        <time>2015-11-04T09:13:33Z</time>
      </trkpt>
      <trkpt lat="47.12687" lon="5.47708">
        <ele>341</ele>
        <time>2015-11-04T09:13:49Z</time>
      </trkpt>
      <trkpt lat="47.12697" lon="5.47711">
        <ele>340</ele>
        <time>2015-11-04T09:13:55Z</time>
      </trkpt>
      <trkpt lat="47.12706" lon="5.4771">
        <ele>341</ele>
        <time>2015-11-04T09:14:03Z</time>
      </trkpt>
      <trkpt lat="47.12715" lon="5.47714">
        <ele>341</ele>
        <time>2015-11-04T09:14:11Z</time>
      </trkpt>
      <trkpt lat="47.12734" lon="5.47709">
        <ele>340</ele>
        <time>2015-11-04T09:14:26Z</time>
      </trkpt>
      <trkpt lat="47.12771" lon="5.47695">
        <ele>338</ele>
        <time>2015-11-04T09:14:58Z</time>
      </trkpt>
      <trkpt lat="47.12789" lon="5.47689">
        <ele>339</ele>
        <time>2015-11-04T09:15:16Z</time>
      </trkpt>
      <trkpt lat="47.12827" lon="5.47693">
        <ele>334</ele>
        <time>2015-11-04T09:15:51Z</time>
      </trkpt>
      <trkpt lat="47.12846" lon="5.4769">
        <ele>334</ele>
        <time>2015-11-04T09:16:08Z</time>
      </trkpt>
      <trkpt lat="47.12865" lon="5.47684">
        <ele>334</ele>
        <time>2015-11-04T09:16:22Z</time>
      </trkpt>
      <trkpt lat="47.12873" lon="5.47679">
        <ele>333</ele>
        <time>2015-11-04T09:16:32Z</time>
      </trkpt>
      <trkpt lat="47.12883" lon="5.47675">
        <ele>330</ele>
        <time>2015-11-04T09:16:43Z</time>
      </trkpt>
      <trkpt lat="47.12892" lon="5.47671">
        <ele>330</ele>
        <time>2015-11-04T09:16:52Z</time>
      </trkpt>
      <trkpt lat="47.12902" lon="5.4767">
        <ele>330</ele>
        <time>2015-11-04T09:17:03Z</time>
      </trkpt>
      <trkpt lat="47.12909" lon="5.47677">
        <ele>330</ele>
        <time>2015-11-04T09:17:13Z</time>
      </trkpt>
      <trkpt lat="47.12918" lon="5.47683">
        <ele>329</ele>
        <time>2015-11-04T09:17:23Z</time>
      </trkpt>
      <trkpt lat="47.12927" lon="5.47684">
        <ele>328</ele>
        <time>2015-11-04T09:17:32Z</time>
      </trkpt>
      <trkpt lat="47.12936" lon="5.47684">
        <ele>326</ele>
        <time>2015-11-04T09:17:43Z</time>
      </trkpt>
      <trkpt lat="47.12962" lon="5.47696">
        <ele>326</ele>
        <time>2015-11-04T09:18:11Z</time>
      </trkpt>
      <trkpt lat="47.12971" lon="5.47703">
        <ele>324</ele>
        <time>2015-11-04T09:18:22Z</time>
      </trkpt>
      <trkpt lat="47.1298" lon="5.47707">
        <ele>324</ele>
        <time>2015-11-04T09:18:30Z</time>
      </trkpt>
      <trkpt lat="47.12989" lon="5.47713">
        <ele>325</ele>
        <time>2015-11-04T09:18:40Z</time>
      </trkpt>
      <trkpt lat="47.13011" lon="5.4774">
        <ele>324</ele>
        <time>2015-11-04T09:19:08Z</time>
      </trkpt>
      <trkpt lat="47.13018" lon="5.47747">
        <ele>322</ele>
        <time>2015-11-04T09:19:16Z</time>
      </trkpt>
      <trkpt lat="47.13027" lon="5.47772">
        <ele>320</ele>
        <time>2015-11-04T09:19:35Z</time>
      </trkpt>
      <trkpt lat="47.13029" lon="5.47799">
        <ele>316</ele>
        <time>2015-11-04T09:19:55Z</time>
      </trkpt>
      <trkpt lat="47.13027" lon="5.47812">
        <ele>315</ele>
        <time>2015-11-04T09:20:05Z</time>
      </trkpt>
      <trkpt lat="47.13015" lon="5.47832">
        <ele>313</ele>
        <time>2015-11-04T09:20:24Z</time>
      </trkpt>
      <trkpt lat="47.12992" lon="5.47879">
        <ele>310</ele>
        <time>2015-11-04T09:21:00Z</time>
      </trkpt>
      <trkpt lat="47.1298" lon="5.479">
        <ele>308</ele>
        <time>2015-11-04T09:21:16Z</time>
      </trkpt>
      <trkpt lat="47.12973" lon="5.47943">
        <ele>306</ele>
        <time>2015-11-04T09:21:44Z</time>
      </trkpt>
      <trkpt lat="47.12966" lon="5.47969">
        <ele>307</ele>
        <time>2015-11-04T09:22:01Z</time>
      </trkpt>
      <trkpt lat="47.12957" lon="5.48023">
        <ele>306</ele>
        <time>2015-11-04T09:22:33Z</time>
      </trkpt>
      <trkpt lat="47.12952" lon="5.4805">
        <ele>305</ele>
        <time>2015-11-04T09:22:49Z</time>
      </trkpt>
      <trkpt lat="47.12943" lon="5.48102">
        <ele>311</ele>
        <time>2015-11-04T09:23:24Z</time>
      </trkpt>
      <trkpt lat="47.12943" lon="5.48109">
        <ele>311</ele>
        <time>2015-11-04T09:23:28Z</time>
      </trkpt>
      <trkpt lat="47.12937" lon="5.48124">
        <ele>313</ele>
        <time>2015-11-04T09:23:46Z</time>
      </trkpt>
      <trkpt lat="47.1294" lon="5.48132">
        <ele>315</ele>
        <time>2015-11-04T09:24:09Z</time>
      </trkpt>
      <trkpt lat="47.12942" lon="5.48138">
        <ele>316</ele>
        <time>2015-11-04T09:24:13Z</time>
      </trkpt>
      <trkpt lat="47.12946" lon="5.48141">
        <ele>316</ele>
        <time>2015-11-04T09:24:17Z</time>
      </trkpt>
      <trkpt lat="47.12956" lon="5.48145">
        <ele>314</ele>
        <time>2015-11-04T09:24:26Z</time>
      </trkpt>
      <trkpt lat="47.12959" lon="5.48151">
        <ele>314</ele>
        <time>2015-11-04T09:24:32Z</time>
      </trkpt>
      <trkpt lat="47.12963" lon="5.48156">
        <ele>314</ele>
        <time>2015-11-04T09:24:36Z</time>
      </trkpt>
      <trkpt lat="47.12968" lon="5.48159">
        <ele>314</ele>
        <time>2015-11-04T09:24:40Z</time>
      </trkpt>
      <trkpt lat="47.12971" lon="5.48163">
        <ele>315</ele>
        <time>2015-11-04T09:24:44Z</time>
      </trkpt>
      <trkpt lat="47.12976" lon="5.48166">
        <ele>316</ele>
        <time>2015-11-04T09:24:48Z</time>
      </trkpt>
      <trkpt lat="47.12989" lon="5.48189">
        <ele>317</ele>
        <time>2015-11-04T09:25:04Z</time>
      </trkpt>
      <trkpt lat="47.12993" lon="5.48193">
        <ele>317</ele>
        <time>2015-11-04T09:25:08Z</time>
      </trkpt>
      <trkpt lat="47.12997" lon="5.48197">
        <ele>316</ele>
        <time>2015-11-04T09:25:12Z</time>
      </trkpt>
      <trkpt lat="47.13027" lon="5.48226">
        <ele>319</ele>
        <time>2015-11-04T09:25:43Z</time>
      </trkpt>
      <trkpt lat="47.13032" lon="5.48228">
        <ele>320</ele>
        <time>2015-11-04T09:25:47Z</time>
      </trkpt>
      <trkpt lat="47.13036" lon="5.48232">
        <ele>319</ele>
        <time>2015-11-04T09:25:52Z</time>
      </trkpt>
      <trkpt lat="47.13045" lon="5.4824">
        <ele>317</ele>
        <time>2015-11-04T09:26:02Z</time>
      </trkpt>
      <trkpt lat="47.13071" lon="5.48239">
        <ele>314</ele>
        <time>2015-11-04T09:26:23Z</time>
      </trkpt>
      <trkpt lat="47.13076" lon="5.48236">
        <ele>315</ele>
        <time>2015-11-04T09:26:28Z</time>
      </trkpt>
      <trkpt lat="47.13092" lon="5.48232">
        <ele>311</ele>
        <time>2015-11-04T09:26:43Z</time>
      </trkpt>
      <trkpt lat="47.13129" lon="5.48222">
        <ele>308</ele>
        <time>2015-11-04T09:27:15Z</time>
      </trkpt>
      <trkpt lat="47.13148" lon="5.4822">
        <ele>307</ele>
        <time>2015-11-04T09:27:33Z</time>
      </trkpt>
      <trkpt lat="47.13157" lon="5.48218">
        <ele>307</ele>
        <time>2015-11-04T09:27:42Z</time>
      </trkpt>
      <trkpt lat="47.13166" lon="5.48213">
        <ele>306</ele>
        <time>2015-11-04T09:27:50Z</time>
      </trkpt>
      <trkpt lat="47.13175" lon="5.48209">
        <ele>306</ele>
        <time>2015-11-04T09:27:58Z</time>
      </trkpt>
      <trkpt lat="47.13184" lon="5.48207">
        <ele>308</ele>
        <time>2015-11-04T09:28:05Z</time>
      </trkpt>
      <trkpt lat="47.13193" lon="5.48209">
        <ele>308</ele>
        <time>2015-11-04T09:28:13Z</time>
      </trkpt>
      <trkpt lat="47.13228" lon="5.48226">
        <ele>306</ele>
        <time>2015-11-04T09:28:43Z</time>
      </trkpt>
      <trkpt lat="47.13238" lon="5.48231">
        <ele>304</ele>
        <time>2015-11-04T09:28:53Z</time>
      </trkpt>
      <trkpt lat="47.13266" lon="5.48268">
        <ele>304</ele>
        <time>2015-11-04T09:29:24Z</time>
      </trkpt>
      <trkpt lat="47.13287" lon="5.48295">
        <ele>305</ele>
        <time>2015-11-04T09:29:46Z</time>
      </trkpt>
      <trkpt lat="47.13296" lon="5.48301">
        <ele>304</ele>
        <time>2015-11-04T09:29:55Z</time>
      </trkpt>
      <trkpt lat="47.13317" lon="5.48329">
        <ele>305</ele>
        <time>2015-11-04T09:30:20Z</time>
      </trkpt>
      <trkpt lat="47.13325" lon="5.48337">
        <ele>305</ele>
        <time>2015-11-04T09:30:28Z</time>
      </trkpt>
      <trkpt lat="47.13347" lon="5.48368">
        <ele>305</ele>
        <time>2015-11-04T09:30:53Z</time>
      </trkpt>
      <trkpt lat="47.1338" lon="5.4843">
        <ele>304</ele>
        <time>2015-11-04T09:31:43Z</time>
      </trkpt>
      <trkpt lat="47.13382" lon="5.48441">
        <ele>304</ele>
        <time>2015-11-04T09:32:02Z</time>
      </trkpt>
      <trkpt lat="47.13378" lon="5.48455">
        <ele>303</ele>
        <time>2015-11-04T09:32:14Z</time>
      </trkpt>
      <trkpt lat="47.13372" lon="5.48468">
        <ele>302</ele>
        <time>2015-11-04T09:32:24Z</time>
      </trkpt>
      <trkpt lat="47.13362" lon="5.48485">
        <ele>303</ele>
        <time>2015-11-04T09:32:36Z</time>
      </trkpt>
      <trkpt lat="47.13362" lon="5.48492">
        <ele>303</ele>
        <time>2015-11-04T09:32:40Z</time>
      </trkpt>
      <trkpt lat="47.13359" lon="5.48498">
        <ele>304</ele>
        <time>2015-11-04T09:32:45Z</time>
      </trkpt>
      <trkpt lat="47.13354" lon="5.4851">
        <ele>304</ele>
        <time>2015-11-04T09:32:56Z</time>
      </trkpt>
      <trkpt lat="47.13349" lon="5.48523">
        <ele>303</ele>
        <time>2015-11-04T09:33:04Z</time>
      </trkpt>
      <trkpt lat="47.13347" lon="5.4853">
        <ele>303</ele>
        <time>2015-11-04T09:33:09Z</time>
      </trkpt>
      <trkpt lat="47.13325" lon="5.4857">
        <ele>305</ele>
        <time>2015-11-04T09:33:39Z</time>
      </trkpt>
      <trkpt lat="47.13318" lon="5.4858">
        <ele>306</ele>
        <time>2015-11-04T09:33:47Z</time>
      </trkpt>
      <trkpt lat="47.13313" lon="5.4859">
        <ele>306</ele>
        <time>2015-11-04T09:33:55Z</time>
      </trkpt>
      <trkpt lat="47.13284" lon="5.48627">
        <ele>308</ele>
        <time>2015-11-04T09:34:27Z</time>
      </trkpt>
      <trkpt lat="47.13265" lon="5.4866">
        <ele>308</ele>
        <time>2015-11-04T09:34:51Z</time>
      </trkpt>
      <trkpt lat="47.13252" lon="5.48683">
        <ele>307</ele>
        <time>2015-11-04T09:35:07Z</time>
      </trkpt>
      <trkpt lat="47.13242" lon="5.48705">
        <ele>307</ele>
        <time>2015-11-04T09:35:26Z</time>
      </trkpt>
      <trkpt lat="47.13237" lon="5.48717">
        <ele>306</ele>
        <time>2015-11-04T09:35:34Z</time>
      </trkpt>
      <trkpt lat="47.1322" lon="5.48746">
        <ele>307</ele>
        <time>2015-11-04T09:35:57Z</time>
      </trkpt>
      <trkpt lat="47.13216" lon="5.48798">
        <ele>311</ele>
        <time>2015-11-04T09:36:29Z</time>
      </trkpt>
      <trkpt lat="47.13215" lon="5.48813">
        <ele>313</ele>
        <time>2015-11-04T09:36:38Z</time>
      </trkpt>
      <trkpt lat="47.13216" lon="5.4882">
        <ele>313</ele>
        <time>2015-11-04T09:36:43Z</time>
      </trkpt>
      <trkpt lat="47.13215" lon="5.48826">
        <ele>313</ele>
        <time>2015-11-04T09:36:47Z</time>
      </trkpt>
      <trkpt lat="47.13212" lon="5.4884">
        <ele>313</ele>
        <time>2015-11-04T09:36:56Z</time>
      </trkpt>
      <trkpt lat="47.13209" lon="5.48847">
        <ele>313</ele>
        <time>2015-11-04T09:37:00Z</time>
      </trkpt>
      <trkpt lat="47.13206" lon="5.48854">
        <ele>313</ele>
        <time>2015-11-04T09:37:04Z</time>
      </trkpt>
      <trkpt lat="47.13199" lon="5.48872">
        <ele>313</ele>
        <time>2015-11-04T09:37:18Z</time>
      </trkpt>
      <trkpt lat="47.13195" lon="5.48885">
        <ele>314</ele>
        <time>2015-11-04T09:37:29Z</time>
      </trkpt>
      <trkpt lat="47.13181" lon="5.48922">
        <ele>315</ele>
        <time>2015-11-04T09:37:53Z</time>
      </trkpt>
      <trkpt lat="47.13166" lon="5.48959">
        <ele>317</ele>
        <time>2015-11-04T09:38:17Z</time>
      </trkpt>
      <trkpt lat="47.13156" lon="5.48999">
        <ele>316</ele>
        <time>2015-11-04T09:38:44Z</time>
      </trkpt>
      <trkpt lat="47.13146" lon="5.49001">
        <ele>316</ele>
        <time>2015-11-04T09:38:55Z</time>
      </trkpt>
      <trkpt lat="47.13138" lon="5.48993">
        <ele>316</ele>
        <time>2015-11-04T09:39:05Z</time>
      </trkpt>
      <trkpt lat="47.13133" lon="5.48982">
        <ele>316</ele>
        <time>2015-11-04T09:39:15Z</time>
      </trkpt>
      <trkpt lat="47.13115" lon="5.48971">
        <ele>316</ele>
        <time>2015-11-04T09:39:37Z</time>
      </trkpt>
      <trkpt lat="47.13084" lon="5.48936">
        <ele>320</ele>
        <time>2015-11-04T09:40:13Z</time>
      </trkpt>
      <trkpt lat="47.13067" lon="5.48921">
        <ele>321</ele>
        <time>2015-11-04T09:40:29Z</time>
      </trkpt>
      <trkpt lat="47.13061" lon="5.4891">
        <ele>323</ele>
        <time>2015-11-04T09:40:42Z</time>
      </trkpt>
      <trkpt lat="47.13031" lon="5.48878">
        <ele>325</ele>
        <time>2015-11-04T09:41:13Z</time>
      </trkpt>
      <trkpt lat="47.13022" lon="5.48873">
        <ele>326</ele>
        <time>2015-11-04T09:41:21Z</time>
      </trkpt>
      <trkpt lat="47.13016" lon="5.48864">
        <ele>327</ele>
        <time>2015-11-04T09:41:32Z</time>
      </trkpt>
      <trkpt lat="47.13008" lon="5.48857">
        <ele>327</ele>
        <time>2015-11-04T09:41:41Z</time>
      </trkpt>
      <trkpt lat="47.12992" lon="5.48841">
        <ele>329</ele>
        <time>2015-11-04T09:41:59Z</time>
      </trkpt>
      <trkpt lat="47.12962" lon="5.48807">
        <ele>331</ele>
        <time>2015-11-04T09:42:33Z</time>
      </trkpt>
      <trkpt lat="47.12954" lon="5.48799">
        <ele>330</ele>
        <time>2015-11-04T09:42:43Z</time>
      </trkpt>
      <trkpt lat="47.12932" lon="5.48773">
        <ele>329</ele>
        <time>2015-11-04T09:43:10Z</time>
      </trkpt>
      <trkpt lat="47.12904" lon="5.48745">
        <ele>332</ele>
        <time>2015-11-04T09:43:53Z</time>
      </trkpt>
      <trkpt lat="47.12896" lon="5.48743">
        <ele>333</ele>
        <time>2015-11-04T09:44:47Z</time>
      </trkpt>
      <trkpt lat="47.12868" lon="5.48754">
        <ele>330</ele>
        <time>2015-11-04T09:45:16Z</time>
      </trkpt>
      <trkpt lat="47.1285" lon="5.48759">
        <ele>330</ele>
        <time>2015-11-04T09:45:35Z</time>
      </trkpt>
      <trkpt lat="47.12822" lon="5.48755">
        <ele>334</ele>
        <time>2015-11-04T09:46:08Z</time>
      </trkpt>
      <trkpt lat="47.12813" lon="5.48754">
        <ele>335</ele>
        <time>2015-11-04T09:46:17Z</time>
      </trkpt>
      <trkpt lat="47.12796" lon="5.48765">
        <ele>336</ele>
        <time>2015-11-04T09:46:34Z</time>
      </trkpt>
      <trkpt lat="47.12786" lon="5.48765">
        <ele>337</ele>
        <time>2015-11-04T09:46:43Z</time>
      </trkpt>
      <trkpt lat="47.12776" lon="5.4877">
        <ele>337</ele>
        <time>2015-11-04T09:46:53Z</time>
      </trkpt>
      <trkpt lat="47.12767" lon="5.48771">
        <ele>336</ele>
        <time>2015-11-04T09:47:01Z</time>
      </trkpt>
      <trkpt lat="47.12758" lon="5.48769">
        <ele>336</ele>
        <time>2015-11-04T09:47:08Z</time>
      </trkpt>
      <trkpt lat="47.12748" lon="5.48769">
        <ele>337</ele>
        <time>2015-11-04T09:47:18Z</time>
      </trkpt>
      <trkpt lat="47.12721" lon="5.48778">
        <ele>337</ele>
        <time>2015-11-04T09:47:41Z</time>
      </trkpt>
      <trkpt lat="47.12682" lon="5.48779">
        <ele>334</ele>
        <time>2015-11-04T09:48:17Z</time>
      </trkpt>
      <trkpt lat="47.12674" lon="5.48785">
        <ele>332</ele>
        <time>2015-11-04T09:48:28Z</time>
      </trkpt>
      <trkpt lat="47.12664" lon="5.48786">
        <ele>332</ele>
        <time>2015-11-04T09:48:36Z</time>
      </trkpt>
      <trkpt lat="47.12634" lon="5.4879">
        <ele>333</ele>
        <time>2015-11-04T09:48:56Z</time>
      </trkpt>
      <trkpt lat="47.12625" lon="5.48792">
        <ele>332</ele>
        <time>2015-11-04T09:49:05Z</time>
      </trkpt>
      <trkpt lat="47.12577" lon="5.48802">
        <ele>333</ele>
        <time>2015-11-04T09:49:42Z</time>
      </trkpt>
      <trkpt lat="47.12538" lon="5.48805">
        <ele>333</ele>
        <time>2015-11-04T09:50:17Z</time>
      </trkpt>
      <trkpt lat="47.12518" lon="5.48809">
        <ele>334</ele>
        <time>2015-11-04T09:50:32Z</time>
      </trkpt>
      <trkpt lat="47.12508" lon="5.48814">
        <ele>335</ele>
        <time>2015-11-04T09:50:39Z</time>
      </trkpt>
      <trkpt lat="47.12489" lon="5.48818">
        <ele>333</ele>
        <time>2015-11-04T09:50:55Z</time>
      </trkpt>
      <trkpt lat="47.1248" lon="5.4882">
        <ele>334</ele>
        <time>2015-11-04T09:51:01Z</time>
      </trkpt>
      <trkpt lat="47.12443" lon="5.4883">
        <ele>331</ele>
        <time>2015-11-04T09:51:37Z</time>
      </trkpt>
      <trkpt lat="47.12405" lon="5.4883">
        <ele>330</ele>
        <time>2015-11-04T09:52:11Z</time>
      </trkpt>
      <trkpt lat="47.12395" lon="5.48833">
        <ele>330</ele>
        <time>2015-11-04T09:52:18Z</time>
      </trkpt>
      <trkpt lat="47.12387" lon="5.4884">
        <ele>329</ele>
        <time>2015-11-04T09:52:26Z</time>
      </trkpt>
      <trkpt lat="47.12349" lon="5.4885">
        <ele>327</ele>
        <time>2015-11-04T09:53:05Z</time>
      </trkpt>
      <trkpt lat="47.12314" lon="5.48853">
        <ele>322</ele>
        <time>2015-11-04T09:53:58Z</time>
      </trkpt>
      <trkpt lat="47.12316" lon="5.48855">
        <ele>322</ele>
        <time>2015-11-04T09:54:04Z</time>
      </trkpt>
      <trkpt lat="47.12311" lon="5.48857">
        <ele>322</ele>
        <time>2015-11-04T09:54:18Z</time>
      </trkpt>
      <trkpt lat="47.12314" lon="5.48858">
        <ele>322</ele>
        <time>2015-11-04T09:55:12Z</time>
      </trkpt>
      <trkpt lat="47.12315" lon="5.48864">
        <ele>322</ele>
        <time>2015-11-04T09:56:54Z</time>
      </trkpt>
      <trkpt lat="47.12316" lon="5.48856">
        <ele>318</ele>
        <time>2015-11-04T09:59:20Z</time>
      </trkpt>
      <trkpt lat="47.12315" lon="5.48842">
        <ele>318</ele>
        <time>2015-11-04T09:59:29Z</time>
      </trkpt>
      <trkpt lat="47.12311" lon="5.48829">
        <ele>316</ele>
        <time>2015-11-04T09:59:38Z</time>
      </trkpt>
      <trkpt lat="47.12309" lon="5.48815">
        <ele>316</ele>
        <time>2015-11-04T09:59:47Z</time>
      </trkpt>
      <trkpt lat="47.12283" lon="5.48786">
        <ele>317</ele>
        <time>2015-11-04T10:00:12Z</time>
      </trkpt>
      <trkpt lat="47.12275" lon="5.48777">
        <ele>316</ele>
        <time>2015-11-04T10:00:21Z</time>
      </trkpt>
      <trkpt lat="47.12271" lon="5.48772">
        <ele>316</ele>
        <time>2015-11-04T10:00:25Z</time>
      </trkpt>
      <trkpt lat="47.12249" lon="5.48748">
        <ele>320</ele>
        <time>2015-11-04T10:00:44Z</time>
      </trkpt>
      <trkpt lat="47.12229" lon="5.48744">
        <ele>320</ele>
        <time>2015-11-04T10:01:02Z</time>
      </trkpt>
      <trkpt lat="47.12214" lon="5.48746">
        <ele>322</ele>
        <time>2015-11-04T10:01:16Z</time>
      </trkpt>
      <trkpt lat="47.12204" lon="5.48748">
        <ele>321</ele>
        <time>2015-11-04T10:01:25Z</time>
      </trkpt>
      <trkpt lat="47.122" lon="5.48749">
        <ele>321</ele>
        <time>2015-11-04T10:01:29Z</time>
      </trkpt>
      <trkpt lat="47.12194" lon="5.48749">
        <ele>321</ele>
        <time>2015-11-04T10:01:33Z</time>
      </trkpt>
      <trkpt lat="47.12179" lon="5.48754">
        <ele>322</ele>
        <time>2015-11-04T10:01:47Z</time>
      </trkpt>
      <trkpt lat="47.12175" lon="5.48756">
        <ele>322</ele>
        <time>2015-11-04T10:01:52Z</time>
      </trkpt>
      <trkpt lat="47.1217" lon="5.48757">
        <ele>322</ele>
        <time>2015-11-04T10:01:56Z</time>
      </trkpt>
      <trkpt lat="47.12133" lon="5.48768">
        <ele>322</ele>
        <time>2015-11-04T10:02:26Z</time>
      </trkpt>
      <trkpt lat="47.12102" lon="5.48769">
        <ele>322</ele>
        <time>2015-11-04T10:02:51Z</time>
      </trkpt>
      <trkpt lat="47.12097" lon="5.48772">
        <ele>321</ele>
        <time>2015-11-04T10:02:56Z</time>
      </trkpt>
      <trkpt lat="47.12093" lon="5.48774">
        <ele>322</ele>
        <time>2015-11-04T10:03:02Z</time>
      </trkpt>
      <trkpt lat="47.1209" lon="5.48776">
        <ele>321</ele>
        <time>2015-11-04T10:03:08Z</time>
      </trkpt>
      <trkpt lat="47.12085" lon="5.48774">
        <ele>321</ele>
        <time>2015-11-04T10:03:15Z</time>
      </trkpt>
      <trkpt lat="47.12079" lon="5.48774">
        <ele>321</ele>
        <time>2015-11-04T10:03:19Z</time>
      </trkpt>
      <trkpt lat="47.12068" lon="5.48775">
        <ele>321</ele>
        <time>2015-11-04T10:03:27Z</time>
      </trkpt>
      <trkpt lat="47.12063" lon="5.48775">
        <ele>320</ele>
        <time>2015-11-04T10:03:31Z</time>
      </trkpt>
      <trkpt lat="47.12023" lon="5.48771">
        <ele>316</ele>
        <time>2015-11-04T10:04:03Z</time>
      </trkpt>
      <trkpt lat="47.11983" lon="5.48764">
        <ele>313</ele>
        <time>2015-11-04T10:04:35Z</time>
      </trkpt>
      <trkpt lat="47.11978" lon="5.48764">
        <ele>313</ele>
        <time>2015-11-04T10:04:40Z</time>
      </trkpt>
      <trkpt lat="47.11972" lon="5.48762">
        <ele>312</ele>
        <time>2015-11-04T10:04:44Z</time>
      </trkpt>
      <trkpt lat="47.11953" lon="5.48758">
        <ele>312</ele>
        <time>2015-11-04T10:05:00Z</time>
      </trkpt>
      <trkpt lat="47.11948" lon="5.48757">
        <ele>312</ele>
        <time>2015-11-04T10:05:05Z</time>
      </trkpt>
      <trkpt lat="47.11944" lon="5.48758">
        <ele>311</ele>
        <time>2015-11-04T10:05:14Z</time>
      </trkpt>
      <trkpt lat="47.1194" lon="5.48755">
        <ele>311</ele>
        <time>2015-11-04T10:05:37Z</time>
      </trkpt>
      <trkpt lat="47.11926" lon="5.48755">
        <ele>311</ele>
        <time>2015-11-04T10:05:49Z</time>
      </trkpt>
      <trkpt lat="47.11921" lon="5.48755">
        <ele>310</ele>
        <time>2015-11-04T10:05:54Z</time>
      </trkpt>
      <trkpt lat="47.11916" lon="5.48753">
        <ele>310</ele>
        <time>2015-11-04T10:05:59Z</time>
      </trkpt>
      <trkpt lat="47.11905" lon="5.48751">
        <ele>310</ele>
        <time>2015-11-04T10:06:08Z</time>
      </trkpt>
      <trkpt lat="47.1189" lon="5.48754">
        <ele>309</ele>
        <time>2015-11-04T10:06:20Z</time>
      </trkpt>
      <trkpt lat="47.11845" lon="5.48745">
        <ele>308</ele>
        <time>2015-11-04T10:06:49Z</time>
      </trkpt>
      <trkpt lat="47.11842" lon="5.48751">
        <ele>307</ele>
        <time>2015-11-04T10:06:55Z</time>
      </trkpt>
      <trkpt lat="47.11838" lon="5.48752">
        <ele>306</ele>
        <time>2015-11-04T10:06:59Z</time>
      </trkpt>
      <trkpt lat="47.11828" lon="5.48749">
        <ele>305</ele>
        <time>2015-11-04T10:07:07Z</time>
      </trkpt>
      <trkpt lat="47.11792" lon="5.48731">
        <ele>305</ele>
        <time>2015-11-04T10:07:37Z</time>
      </trkpt>
      <trkpt lat="47.11787" lon="5.48726">
        <ele>305</ele>
        <time>2015-11-04T10:07:41Z</time>
      </trkpt>
      <trkpt lat="47.11764" lon="5.48711">
        <ele>307</ele>
        <time>2015-11-04T10:08:02Z</time>
      </trkpt>
      <trkpt lat="47.1175" lon="5.48704">
        <ele>307</ele>
        <time>2015-11-04T10:08:13Z</time>
      </trkpt>
      <trkpt lat="47.11738" lon="5.48707">
        <ele>307</ele>
        <time>2015-11-04T10:08:24Z</time>
      </trkpt>
      <trkpt lat="47.11731" lon="5.48698">
        <ele>308</ele>
        <time>2015-11-04T10:08:34Z</time>
      </trkpt>
      <trkpt lat="47.11705" lon="5.48679">
        <ele>310</ele>
        <time>2015-11-04T10:08:59Z</time>
      </trkpt>
      <trkpt lat="47.11689" lon="5.48665">
        <ele>309</ele>
        <time>2015-11-04T10:09:13Z</time>
      </trkpt>
      <trkpt lat="47.11682" lon="5.48658">
        <ele>309</ele>
        <time>2015-11-04T10:09:20Z</time>
      </trkpt>
      <trkpt lat="47.11672" lon="5.48652">
        <ele>310</ele>
        <time>2015-11-04T10:09:29Z</time>
      </trkpt>
      <trkpt lat="47.11663" lon="5.48646">
        <ele>310</ele>
        <time>2015-11-04T10:09:37Z</time>
      </trkpt>
      <trkpt lat="47.11654" lon="5.48643">
        <ele>311</ele>
        <time>2015-11-04T10:09:44Z</time>
      </trkpt>
      <trkpt lat="47.11629" lon="5.48623">
        <ele>312</ele>
        <time>2015-11-04T10:10:06Z</time>
      </trkpt>
      <trkpt lat="47.11606" lon="5.48601">
        <ele>315</ele>
        <time>2015-11-04T10:10:28Z</time>
      </trkpt>
      <trkpt lat="47.11569" lon="5.48595">
        <ele>313</ele>
        <time>2015-11-04T10:10:59Z</time>
      </trkpt>
      <trkpt lat="47.11567" lon="5.48598">
        <ele>313</ele>
        <time>2015-11-04T10:11:05Z</time>
      </trkpt>
      <trkpt lat="47.11564" lon="5.48605">
        <ele>313</ele>
        <time>2015-11-04T10:11:11Z</time>
      </trkpt>
      <trkpt lat="47.11562" lon="5.48611">
        <ele>313</ele>
        <time>2015-11-04T10:11:17Z</time>
      </trkpt>
      <trkpt lat="47.11559" lon="5.48618">
        <ele>313</ele>
        <time>2015-11-04T10:11:23Z</time>
      </trkpt>
      <trkpt lat="47.11555" lon="5.48632">
        <ele>313</ele>
        <time>2015-11-04T10:11:32Z</time>
      </trkpt>
      <trkpt lat="47.11549" lon="5.48659">
        <ele>315</ele>
        <time>2015-11-04T10:11:59Z</time>
      </trkpt>
      <trkpt lat="47.11553" lon="5.48672">
        <ele>316</ele>
        <time>2015-11-04T10:12:10Z</time>
      </trkpt>
      <trkpt lat="47.11553" lon="5.48686">
        <ele>316</ele>
        <time>2015-11-04T10:12:22Z</time>
      </trkpt>
      <trkpt lat="47.11548" lon="5.48704">
        <ele>315</ele>
        <time>2015-11-04T10:12:34Z</time>
      </trkpt>
      <trkpt lat="47.11548" lon="5.48694">
        <ele>313</ele>
        <time>2015-11-04T10:13:15Z</time>
      </trkpt>
      <trkpt lat="47.11551" lon="5.48672">
        <ele>312</ele>
        <time>2015-11-04T10:13:28Z</time>
      </trkpt>
      <trkpt lat="47.11552" lon="5.48659">
        <ele>312</ele>
        <time>2015-11-04T10:13:38Z</time>
      </trkpt>
      <trkpt lat="47.11546" lon="5.48647">
        <ele>313</ele>
        <time>2015-11-04T10:13:46Z</time>
      </trkpt>
      <trkpt lat="47.11537" lon="5.48645">
        <ele>313</ele>
        <time>2015-11-04T10:13:54Z</time>
      </trkpt>
      <trkpt lat="47.1153" lon="5.48637">
        <ele>313</ele>
        <time>2015-11-04T10:14:06Z</time>
      </trkpt>
      <trkpt lat="47.11523" lon="5.48647">
        <ele>313</ele>
        <time>2015-11-04T10:14:15Z</time>
      </trkpt>
      <trkpt lat="47.1149" lon="5.48671">
        <ele>313</ele>
        <time>2015-11-04T10:14:44Z</time>
      </trkpt>
      <trkpt lat="47.11491" lon="5.48678">
        <ele>313</ele>
        <time>2015-11-04T10:14:49Z</time>
      </trkpt>
      <trkpt lat="47.11486" lon="5.48682">
        <ele>313</ele>
        <time>2015-11-04T10:14:55Z</time>
      </trkpt>
      <trkpt lat="47.11482" lon="5.48684">
        <ele>312</ele>
        <time>2015-11-04T10:15:00Z</time>
      </trkpt>
      <trkpt lat="47.11479" lon="5.4869">
        <ele>312</ele>
        <time>2015-11-04T10:15:05Z</time>
      </trkpt>
      <trkpt lat="47.11476" lon="5.48696">
        <ele>312</ele>
        <time>2015-11-04T10:15:10Z</time>
      </trkpt>
      <trkpt lat="47.11475" lon="5.48703">
        <ele>312</ele>
        <time>2015-11-04T10:15:16Z</time>
      </trkpt>
      <trkpt lat="47.11476" lon="5.4871">
        <ele>312</ele>
        <time>2015-11-04T10:15:21Z</time>
      </trkpt>
      <trkpt lat="47.11474" lon="5.48718">
        <ele>312</ele>
        <time>2015-11-04T10:15:26Z</time>
      </trkpt>
      <trkpt lat="47.11472" lon="5.48724">
        <ele>311</ele>
        <time>2015-11-04T10:15:30Z</time>
      </trkpt>
      <trkpt lat="47.1147" lon="5.48738">
        <ele>309</ele>
        <time>2015-11-04T10:15:42Z</time>
      </trkpt>
      <trkpt lat="47.11471" lon="5.48742">
        <ele>309</ele>
        <time>2015-11-04T10:15:49Z</time>
      </trkpt>
      <trkpt lat="47.11474" lon="5.48746">
        <ele>308</ele>
        <time>2015-11-04T10:16:12Z</time>
      </trkpt>
      <trkpt lat="47.11483" lon="5.48751">
        <ele>307</ele>
        <time>2015-11-04T10:16:20Z</time>
      </trkpt>
      <trkpt lat="47.11488" lon="5.48754">
        <ele>307</ele>
        <time>2015-11-04T10:16:25Z</time>
      </trkpt>
      <trkpt lat="47.11492" lon="5.48757">
        <ele>308</ele>
        <time>2015-11-04T10:16:30Z</time>
      </trkpt>
      <trkpt lat="47.11496" lon="5.48762">
        <ele>308</ele>
        <time>2015-11-04T10:16:35Z</time>
      </trkpt>
      <trkpt lat="47.1149" lon="5.48773">
        <ele>307</ele>
        <time>2015-11-04T10:17:08Z</time>
      </trkpt>
      <trkpt lat="47.11488" lon="5.48787">
        <ele>306</ele>
        <time>2015-11-04T10:17:19Z</time>
      </trkpt>
      <trkpt lat="47.11478" lon="5.4881">
        <ele>302</ele>
        <time>2015-11-04T10:17:49Z</time>
      </trkpt>
      <trkpt lat="47.11474" lon="5.48823">
        <ele>302</ele>
        <time>2015-11-04T10:18:00Z</time>
      </trkpt>
      <trkpt lat="47.11466" lon="5.48833">
        <ele>300</ele>
        <time>2015-11-04T10:18:16Z</time>
      </trkpt>
      <trkpt lat="47.11459" lon="5.48841">
        <ele>299</ele>
        <time>2015-11-04T10:18:27Z</time>
      </trkpt>
      <trkpt lat="47.11433" lon="5.48854">
        <ele>295</ele>
        <time>2015-11-04T10:19:03Z</time>
      </trkpt>
      <trkpt lat="47.11424" lon="5.48854">
        <ele>294</ele>
        <time>2015-11-04T10:19:12Z</time>
      </trkpt>
      <trkpt lat="47.11415" lon="5.48858">
        <ele>292</ele>
        <time>2015-11-04T10:19:22Z</time>
      </trkpt>
      <trkpt lat="47.11405" lon="5.48858">
        <ele>291</ele>
        <time>2015-11-04T10:19:31Z</time>
      </trkpt>
      <trkpt lat="47.11377" lon="5.48866">
        <ele>292</ele>
        <time>2015-11-04T10:19:56Z</time>
      </trkpt>
      <trkpt lat="47.11364" lon="5.48886">
        <ele>289</ele>
        <time>2015-11-04T10:20:15Z</time>
      </trkpt>
      <trkpt lat="47.11361" lon="5.48892">
        <ele>288</ele>
        <time>2015-11-04T10:20:20Z</time>
      </trkpt>
      <trkpt lat="47.11361" lon="5.489">
        <ele>287</ele>
        <time>2015-11-04T10:20:25Z</time>
      </trkpt>
      <trkpt lat="47.11356" lon="5.48921">
        <ele>286</ele>
        <time>2015-11-04T10:20:40Z</time>
      </trkpt>
      <trkpt lat="47.11351" lon="5.48934">
        <ele>284</ele>
        <time>2015-11-04T10:20:53Z</time>
      </trkpt>
      <trkpt lat="47.11328" lon="5.48973">
        <ele>278</ele>
        <time>2015-11-04T10:21:28Z</time>
      </trkpt>
      <trkpt lat="47.11326" lon="5.4898">
        <ele>278</ele>
        <time>2015-11-04T10:21:33Z</time>
      </trkpt>
      <trkpt lat="47.11325" lon="5.48987">
        <ele>278</ele>
        <time>2015-11-04T10:21:38Z</time>
      </trkpt>
      <trkpt lat="47.11325" lon="5.48991">
        <ele>278</ele>
        <time>2015-11-04T10:21:45Z</time>
      </trkpt>
      <trkpt lat="47.11324" lon="5.48992">
        <ele>274</ele>
        <time>2015-11-04T10:22:20Z</time>
      </trkpt>
      <trkpt lat="47.11328" lon="5.48999">
        <ele>275</ele>
        <time>2015-11-04T10:23:24Z</time>
      </trkpt>
      <trkpt lat="47.11338" lon="5.49014">
        <ele>276</ele>
        <time>2015-11-04T10:23:39Z</time>
      </trkpt>
      <trkpt lat="47.11364" lon="5.49049">
        <ele>274</ele>
        <time>2015-11-04T10:24:13Z</time>
      </trkpt>
      <trkpt lat="47.11373" lon="5.49057">
        <ele>274</ele>
        <time>2015-11-04T10:24:22Z</time>
      </trkpt>
      <trkpt lat="47.11377" lon="5.49061">
        <ele>274</ele>
        <time>2015-11-04T10:24:27Z</time>
      </trkpt>
      <trkpt lat="47.1138" lon="5.49065">
        <ele>274</ele>
        <time>2015-11-04T10:24:31Z</time>
      </trkpt>
      <trkpt lat="47.11394" lon="5.49077">
        <ele>276</ele>
        <time>2015-11-04T10:24:45Z</time>
      </trkpt>
      <trkpt lat="47.11399" lon="5.49082">
        <ele>275</ele>
        <time>2015-11-04T10:24:57Z</time>
      </trkpt>
      <trkpt lat="47.11402" lon="5.49089">
        <ele>274</ele>
        <time>2015-11-04T10:25:02Z</time>
      </trkpt>
      <trkpt lat="47.11407" lon="5.49109">
        <ele>275</ele>
        <time>2015-11-04T10:25:15Z</time>
      </trkpt>
      <trkpt lat="47.11405" lon="5.49124">
        <ele>275</ele>
        <time>2015-11-04T10:25:23Z</time>
      </trkpt>
      <trkpt lat="47.11403" lon="5.49129">
        <ele>275</ele>
        <time>2015-11-04T10:25:27Z</time>
      </trkpt>
      <trkpt lat="47.11387" lon="5.49146">
        <ele>272</ele>
        <time>2015-11-04T10:25:46Z</time>
      </trkpt>
      <trkpt lat="47.11379" lon="5.49156">
        <ele>272</ele>
        <time>2015-11-04T10:25:55Z</time>
      </trkpt>
      <trkpt lat="47.11377" lon="5.49162">
        <ele>272</ele>
        <time>2015-11-04T10:25:59Z</time>
      </trkpt>
      <trkpt lat="47.11374" lon="5.49169">
        <ele>272</ele>
        <time>2015-11-04T10:26:04Z</time>
      </trkpt>
      <trkpt lat="47.1137" lon="5.49218">
        <ele>268</ele>
        <time>2015-11-04T10:26:37Z</time>
      </trkpt>
      <trkpt lat="47.11378" lon="5.49243">
        <ele>266</ele>
        <time>2015-11-04T10:26:54Z</time>
      </trkpt>
      <trkpt lat="47.11383" lon="5.49259">
        <ele>266</ele>
        <time>2015-11-04T10:27:02Z</time>
      </trkpt>
      <trkpt lat="47.11385" lon="5.49265">
        <ele>267</ele>
        <time>2015-11-04T10:27:06Z</time>
      </trkpt>
      <trkpt lat="47.11388" lon="5.4928">
        <ele>268</ele>
        <time>2015-11-04T10:27:16Z</time>
      </trkpt>
      <trkpt lat="47.11387" lon="5.49288">
        <ele>267</ele>
        <time>2015-11-04T10:27:20Z</time>
      </trkpt>
      <trkpt lat="47.11391" lon="5.49316">
        <ele>267</ele>
        <time>2015-11-04T10:27:39Z</time>
      </trkpt>
      <trkpt lat="47.11385" lon="5.49353">
        <ele>265</ele>
        <time>2015-11-04T10:28:04Z</time>
      </trkpt>
      <trkpt lat="47.11383" lon="5.4936">
        <ele>265</ele>
        <time>2015-11-04T10:28:08Z</time>
      </trkpt>
      <trkpt lat="47.1138" lon="5.49374">
        <ele>264</ele>
        <time>2015-11-04T10:28:16Z</time>
      </trkpt>
      <trkpt lat="47.11378" lon="5.49432">
        <ele>266</ele>
        <time>2015-11-04T10:28:45Z</time>
      </trkpt>
      <trkpt lat="47.11383" lon="5.49497">
        <ele>264</ele>
        <time>2015-11-04T10:29:26Z</time>
      </trkpt>
      <trkpt lat="47.11386" lon="5.49501">
        <ele>264</ele>
        <time>2015-11-04T10:29:29Z</time>
      </trkpt>
      <trkpt lat="47.11393" lon="5.49512">
        <ele>264</ele>
        <time>2015-11-04T10:29:36Z</time>
      </trkpt>
      <trkpt lat="47.11409" lon="5.49562">
        <ele>259</ele>
        <time>2015-11-04T10:30:04Z</time>
      </trkpt>
      <trkpt lat="47.1141" lon="5.49569">
        <ele>258</ele>
        <time>2015-11-04T10:30:08Z</time>
      </trkpt>
      <trkpt lat="47.11411" lon="5.49576">
        <ele>259</ele>
        <time>2015-11-04T10:30:12Z</time>
      </trkpt>
      <trkpt lat="47.11415" lon="5.49596">
        <ele>259</ele>
        <time>2015-11-04T10:30:24Z</time>
      </trkpt>
      <trkpt lat="47.11425" lon="5.49619">
        <ele>258</ele>
        <time>2015-11-04T10:30:40Z</time>
      </trkpt>
      <trkpt lat="47.11446" lon="5.49639">
        <ele>255</ele>
        <time>2015-11-04T10:31:01Z</time>
      </trkpt>
      <trkpt lat="47.11459" lon="5.49652">
        <ele>256</ele>
        <time>2015-11-04T10:31:14Z</time>
      </trkpt>
      <trkpt lat="47.11469" lon="5.49668">
        <ele>256</ele>
        <time>2015-11-04T10:31:27Z</time>
      </trkpt>
      <trkpt lat="47.11472" lon="5.49673">
        <ele>256</ele>
        <time>2015-11-04T10:31:31Z</time>
      </trkpt>
      <trkpt lat="47.11473" lon="5.49681">
        <ele>255</ele>
        <time>2015-11-04T10:31:35Z</time>
      </trkpt>
      <trkpt lat="47.11473" lon="5.49688">
        <ele>256</ele>
        <time>2015-11-04T10:31:39Z</time>
      </trkpt>
      <trkpt lat="47.11467" lon="5.49708">
        <ele>255</ele>
        <time>2015-11-04T10:31:51Z</time>
      </trkpt>
      <trkpt lat="47.11464" lon="5.49714">
        <ele>255</ele>
        <time>2015-11-04T10:31:55Z</time>
      </trkpt>
      <trkpt lat="47.11459" lon="5.49727">
        <ele>255</ele>
        <time>2015-11-04T10:32:03Z</time>
      </trkpt>
      <trkpt lat="47.11446" lon="5.49758">
        <ele>253</ele>
        <time>2015-11-04T10:32:25Z</time>
      </trkpt>
      <trkpt lat="47.11429" lon="5.49809">
        <ele>255</ele>
        <time>2015-11-04T10:32:58Z</time>
      </trkpt>
      <trkpt lat="47.11407" lon="5.49858">
        <ele>253</ele>
        <time>2015-11-04T10:33:31Z</time>
      </trkpt>
      <trkpt lat="47.11398" lon="5.49866">
        <ele>252</ele>
        <time>2015-11-04T10:33:39Z</time>
      </trkpt>
      <trkpt lat="47.11361" lon="5.49883">
        <ele>257</ele>
        <time>2015-11-04T10:34:13Z</time>
      </trkpt>
      <trkpt lat="47.11322" lon="5.49903">
        <ele>258</ele>
        <time>2015-11-04T10:34:47Z</time>
      </trkpt>
      <trkpt lat="47.11312" lon="5.49903">
        <ele>258</ele>
        <time>2015-11-04T10:34:55Z</time>
      </trkpt>
      <trkpt lat="47.11302" lon="5.49907">
        <ele>257</ele>
        <time>2015-11-04T10:35:07Z</time>
      </trkpt>
    </trkseg>
  </trk>
</gpx>